createdAt,value
2018-02-09T00:02:19.903Z,50.95
2018-02-09T00:04:48.246Z,48.65
2018-02-09T00:07:17.352Z,51.33
2018-02-09T00:09:46.519Z,47.88
2018-02-09T00:12:14.845Z,45.92
2018-02-09T00:14:43.168Z,48.50
2018-02-09T00:17:12.369Z,48.25
2018-02-09T00:19:41.490Z,49.05
2018-02-09T00:22:09.839Z,52.40
2018-02-09T00:24:38.210Z,51.30
2018-02-09T00:27:06.524Z,48.78
2018-02-09T00:29:35.731Z,45.42
2018-02-09T00:32:04.834Z,47.20
2018-02-09T00:34:33.195Z,48.78
2018-02-09T00:37:01.504Z,46.45
2018-02-09T00:39:30.593Z,45.53
2018-02-09T00:41:59.666Z,47.72
2018-02-09T00:44:28.014Z,47.50
2018-02-09T00:46:56.343Z,48.35
2018-02-09T00:49:25.505Z,47.05
2018-02-09T00:51:53.853Z,47.22
2018-02-09T00:54:22.948Z,46.22
2018-02-09T00:56:52.257Z,46.42
2018-02-09T00:59:21.356Z,47.60
2018-02-09T01:01:50.506Z,50.22
2018-02-09T01:04:18.925Z,47.62
2018-02-09T01:06:48.047Z,50.08
2018-02-09T01:09:16.390Z,49.47
2018-02-09T01:11:44.691Z,49.08
2018-02-09T01:14:13.064Z,50.28
2018-02-09T01:16:41.391Z,49.45
2018-02-09T01:19:09.723Z,47.00
2018-02-09T01:21:38.978Z,46.40
2018-02-09T01:24:07.361Z,47.35
2018-02-09T01:26:35.693Z,44.08
2018-02-09T01:29:04.076Z,46.95
2018-02-09T01:31:33.177Z,47.53
2018-02-09T01:34:01.501Z,46.67
2018-02-09T01:36:29.857Z,45.35
2018-02-09T01:38:58.958Z,42.33
2018-02-09T01:41:28.059Z,48.95
2018-02-09T01:43:57.201Z,49.17
2018-02-09T01:46:25.528Z,49.30
2018-02-09T01:48:54.642Z,50.95
2018-02-09T01:51:23.729Z,51.42
2018-02-09T01:53:52.889Z,50.70
2018-02-09T01:56:21.230Z,50.30
2018-02-09T01:58:49.605Z,51.33
2018-02-09T02:01:18.736Z,46.35
2018-02-09T02:03:47.093Z,52.45
2018-02-09T02:06:15.566Z,50.15
2018-02-09T02:08:43.939Z,50.10
2018-02-09T02:11:12.323Z,48.58
2018-02-09T02:13:41.423Z,53.30
2018-02-09T02:16:09.828Z,51.83
2018-02-09T02:18:38.195Z,49.47
2018-02-09T02:21:07.304Z,49.88
2018-02-09T02:23:36.400Z,49.55
2018-02-09T02:26:05.590Z,49.55
2018-02-09T02:28:33.949Z,49.03
2018-02-09T02:31:02.393Z,48.70
2018-02-09T02:33:30.760Z,49.30
2018-02-09T02:35:59.124Z,48.92
2018-02-09T02:38:27.465Z,46.63
2018-02-09T02:40:55.830Z,50.10
2018-02-09T02:43:24.206Z,46.75
2018-02-09T02:45:52.538Z,47.62
2018-02-09T02:48:22.476Z,51.55
2018-02-09T02:50:51.396Z,49.35
2018-02-09T02:53:21.093Z,49.50
2018-02-09T02:55:52.210Z,48.80
2018-02-09T02:58:20.676Z,50.50
2018-02-09T03:00:49.683Z,48.55
2018-02-09T03:03:18.101Z,47.42
2018-02-09T03:05:47.838Z,48.75
2018-02-09T03:08:16.319Z,51.70
2018-02-09T03:10:45.143Z,47.38
2018-02-09T03:13:13.809Z,50.72
2018-02-09T03:15:47.081Z,49.10
2018-02-09T03:18:16.347Z,47.38
2018-02-09T03:20:44.832Z,44.85
2018-02-09T03:23:13.969Z,50.05
2018-02-09T03:25:42.356Z,46.15
2018-02-09T03:28:11.067Z,48.05
2018-02-09T03:30:39.739Z,47.50
2018-02-09T03:33:08.336Z,50.85
2018-02-09T03:35:36.867Z,51.70
2018-02-09T03:38:05.293Z,51.37
2018-02-09T03:40:33.723Z,51.47
2018-02-09T03:43:02.456Z,49.47
2018-02-09T03:45:31.591Z,51.88
2018-02-09T03:48:00.054Z,52.58
2018-02-09T03:50:29.454Z,53.28
2018-02-09T03:52:58.581Z,52.88
2018-02-09T03:55:27.094Z,48.70
2018-02-09T03:57:56.256Z,47.22
2018-02-09T04:00:25.353Z,53.58
2018-02-09T04:02:53.877Z,50.53
2018-02-09T04:05:24.946Z,50.22
2018-02-09T04:07:54.114Z,51.10
2018-02-09T04:10:23.227Z,51.30
2018-02-09T04:12:51.699Z,47.58
2018-02-09T04:15:20.065Z,48.78
2018-02-09T04:17:48.457Z,48.67
2018-02-09T04:20:16.857Z,48.55
2018-02-09T04:22:45.205Z,45.97
2018-02-09T04:25:14.504Z,52.60
2018-02-09T04:27:42.867Z,50.20
2018-02-09T04:30:12.808Z,44.63
2018-02-09T04:32:41.482Z,47.58
2018-02-09T04:35:09.904Z,48.85
2018-02-09T04:37:39.172Z,51.45
2018-02-09T04:40:08.020Z,47.17
2018-02-09T04:42:36.913Z,51.15
2018-02-09T04:45:05.437Z,50.50
2018-02-09T04:47:34.927Z,48.35
2018-02-09T04:50:04.422Z,50.17
2018-02-09T04:52:33.052Z,49.35
2018-02-09T04:55:01.784Z,50.33
2018-02-09T04:57:30.599Z,48.63
2018-02-09T04:59:59.342Z,51.30
2018-02-09T05:02:27.998Z,46.30
2018-02-09T05:04:56.551Z,47.90
2018-02-09T05:07:25.147Z,47.95
2018-02-09T05:09:53.661Z,47.85
2018-02-09T05:12:21.993Z,46.60
2018-02-09T05:14:50.388Z,51.50
2018-02-09T05:17:18.720Z,48.63
2018-02-09T05:19:47.908Z,47.92
2018-02-09T05:22:16.266Z,48.20
2018-02-09T05:24:45.375Z,47.08
2018-02-09T05:27:13.699Z,50.20
2018-02-09T05:29:42.190Z,47.65
2018-02-09T05:32:10.595Z,51.05
2018-02-09T05:34:38.926Z,49.50
2018-02-09T05:37:07.265Z,50.97
2018-02-09T05:39:35.667Z,48.60
2018-02-09T05:42:04.039Z,49.33
2018-02-09T05:44:32.391Z,48.47
2018-02-09T05:47:01.533Z,52.30
2018-02-09T05:49:29.995Z,46.30
2018-02-09T05:51:58.332Z,49.70
2018-02-09T05:54:26.698Z,47.90
2018-02-09T05:56:55.119Z,47.30
2018-02-09T05:59:23.549Z,48.87
2018-02-09T06:01:52.028Z,48.87
2018-02-09T06:04:20.382Z,49.67
2018-02-09T06:06:49.469Z,51.00
2018-02-09T06:09:17.787Z,46.53
2018-02-09T06:11:46.149Z,43.03
2018-02-09T06:14:15.243Z,45.80
2018-02-09T06:16:43.617Z,44.47
2018-02-09T06:19:12.704Z,47.88
2018-02-09T06:21:41.265Z,47.47
2018-02-09T06:24:09.610Z,51.05
2018-02-09T06:26:37.978Z,49.25
2018-02-09T06:29:06.317Z,45.78
2018-02-09T06:31:34.650Z,49.42
2018-02-09T06:34:03.052Z,43.40
2018-02-09T06:36:31.453Z,43.90
2018-02-09T06:38:59.793Z,44.63
2018-02-09T06:41:28.178Z,42.95
2018-02-09T06:43:57.604Z,43.25
2018-02-09T06:46:26.691Z,42.13
2018-02-09T06:48:55.796Z,39.47
2018-02-09T06:51:24.900Z,41.90
2018-02-09T06:53:53.227Z,43.95
2018-02-09T06:56:21.578Z,39.50
2018-02-09T06:58:49.884Z,43.10
2018-02-09T07:01:18.250Z,43.53
2018-02-09T07:03:47.344Z,41.22
2018-02-09T07:06:15.693Z,39.95
2018-02-09T07:08:44.017Z,43.83
2018-02-09T07:11:12.351Z,43.85
2018-02-09T07:13:40.706Z,43.28
2018-02-09T07:16:09.121Z,45.15
2018-02-09T07:18:38.176Z,41.30
2018-02-09T07:21:06.516Z,44.47
2018-02-09T07:23:34.876Z,42.67
2018-02-09T07:26:04.016Z,40.20
2018-02-09T07:28:32.355Z,44.60
2018-02-09T07:31:00.668Z,43.47
2018-02-09T07:33:30.435Z,42.10
2018-02-09T07:35:58.768Z,41.45
2018-02-09T07:38:27.907Z,40.85
2018-02-09T07:40:56.286Z,40.30
2018-02-09T07:43:24.626Z,41.08
2018-02-09T07:45:53.721Z,40.42
2018-02-09T07:48:22.879Z,38.53
2018-02-09T07:50:51.207Z,40.22
2018-02-09T07:53:20.304Z,39.35
2018-02-09T07:55:49.400Z,38.45
2018-02-09T07:58:17.725Z,41.88
2018-02-09T08:00:46.310Z,39.58
2018-02-09T08:03:14.650Z,36.10
2018-02-09T08:05:43.757Z,41.08
2018-02-09T08:08:12.863Z,39.40
2018-02-09T08:10:41.205Z,37.13
2018-02-09T08:13:09.542Z,39.40
2018-02-09T08:15:37.895Z,39.83
2018-02-09T08:18:06.216Z,41.08
2018-02-09T08:20:34.565Z,40.40
2018-02-09T08:23:03.665Z,37.08
2018-02-09T08:25:32.011Z,36.50
2018-02-09T08:28:00.348Z,37.92
2018-02-09T08:30:29.225Z,37.33
2018-02-09T08:32:58.338Z,35.58
2018-02-09T08:35:26.678Z,35.55
2018-02-09T08:37:55.009Z,36.53
2018-02-09T08:40:23.332Z,38.85
2018-02-09T08:42:51.675Z,36.20
2018-02-09T08:45:20.016Z,35.55
2018-02-09T08:47:48.339Z,35.72
2018-02-09T08:50:16.669Z,40.45
2018-02-09T08:52:45.085Z,37.90
2018-02-09T08:55:14.153Z,39.05
2018-02-09T08:57:42.497Z,38.20
2018-02-09T09:00:10.819Z,36.47
2018-02-09T09:02:39.137Z,39.72
2018-02-09T09:05:07.502Z,38.25
2018-02-09T09:07:36.059Z,38.47
2018-02-09T09:10:04.423Z,40.25
2018-02-09T09:12:37.844Z,39.67
2018-02-09T09:15:06.182Z,38.50
2018-02-09T09:17:34.529Z,38.75
2018-02-09T09:20:02.881Z,37.75
2018-02-09T09:22:31.233Z,39.20
2018-02-09T09:24:59.754Z,39.28
2018-02-09T09:27:28.098Z,40.55
2018-02-09T10:04:49.698Z,40.00
2018-02-09T10:07:18.790Z,40.53
2018-02-09T10:09:47.131Z,37.70
2018-02-09T10:12:15.530Z,37.65
2018-02-09T10:14:43.879Z,34.03
2018-02-09T10:17:12.194Z,35.28
2018-02-09T10:19:40.537Z,35.85
2018-02-09T10:22:08.894Z,32.33
2018-02-09T10:24:37.996Z,34.35
2018-02-09T10:27:07.123Z,37.88
2018-02-09T10:29:35.472Z,32.90
2018-02-09T10:32:04.581Z,33.13
2018-02-09T10:34:33.683Z,33.70
2018-02-09T10:37:02.018Z,32.67
2018-02-09T10:39:30.342Z,42.53
2018-02-09T10:41:59.445Z,36.38
2018-02-09T10:44:30.022Z,35.17
2018-02-09T10:46:58.353Z,33.00
2018-02-09T10:49:27.463Z,35.05
2018-02-09T10:51:55.792Z,32.63
2018-02-09T10:54:24.135Z,33.72
2018-02-09T10:56:52.974Z,37.85
2018-02-09T10:59:21.400Z,34.63
2018-02-09T11:01:50.507Z,31.48
2018-02-09T11:04:19.604Z,34.08
2018-02-09T11:06:47.959Z,34.55
2018-02-09T11:09:21.837Z,33.63
2018-02-09T11:11:50.218Z,35.85
2018-02-09T11:14:18.554Z,40.75
2018-02-09T11:16:47.657Z,33.72
2018-02-09T11:19:16.024Z,34.58
2018-02-09T11:21:45.112Z,35.75
2018-02-09T11:24:13.481Z,33.60
2018-02-09T11:26:41.802Z,33.60
2018-02-09T11:29:10.947Z,33.42
2018-02-09T11:31:39.278Z,34.65
2018-02-09T11:34:08.376Z,33.20
2018-02-09T11:36:37.512Z,35.75
2018-02-09T11:39:21.639Z,32.13
2018-02-09T11:41:49.992Z,34.28
2018-02-09T11:44:19.095Z,33.10
2018-02-09T11:46:47.537Z,32.58
2018-02-09T11:49:15.878Z,34.22
2018-02-09T11:51:44.265Z,36.33
2018-02-09T11:54:12.614Z,36.00
2018-02-09T11:56:41.742Z,35.00
2018-02-09T11:59:10.883Z,33.45
2018-02-09T12:01:39.283Z,36.13
2018-02-09T12:04:07.658Z,34.65
2018-02-09T12:06:36.001Z,35.42
2018-02-09T12:09:04.362Z,33.97
2018-02-09T12:11:32.739Z,34.58
2018-02-09T12:14:01.289Z,32.75
2018-02-09T12:16:29.962Z,36.78
2018-02-09T12:18:58.621Z,32.28
2018-02-09T12:21:27.731Z,34.60
2018-02-09T12:23:56.916Z,33.83
2018-02-09T12:26:25.348Z,33.65
2018-02-09T12:28:54.137Z,32.10
2018-02-09T12:31:22.475Z,34.08
2018-02-09T12:33:51.743Z,32.70
2018-02-09T12:36:20.748Z,36.13
2018-02-09T12:38:49.167Z,37.40
2018-02-09T12:41:18.268Z,35.38
2018-02-09T12:43:46.599Z,33.63
2018-02-09T12:46:14.917Z,33.22
2018-02-09T12:48:43.269Z,33.35
2018-02-09T12:51:11.648Z,33.90
2018-02-09T12:53:39.970Z,33.13
2018-02-09T12:56:08.282Z,39.10
2018-02-09T12:58:36.626Z,31.17
2018-02-09T13:01:04.958Z,32.10
2018-02-09T13:03:34.100Z,33.10
2018-02-09T13:06:02.615Z,33.88
2018-02-09T13:08:31.723Z,32.40
2018-02-09T13:11:00.084Z,34.00
2018-02-09T13:13:28.456Z,31.40
2018-02-09T13:15:57.813Z,32.83
2018-02-09T13:18:37.935Z,32.97
2018-02-09T13:21:07.175Z,29.90
2018-02-09T13:23:47.325Z,35.00
2018-02-09T13:26:16.124Z,29.70
2018-02-09T13:28:57.633Z,32.83
2018-02-09T13:31:26.773Z,32.38
2018-02-09T13:33:55.129Z,31.00
2018-02-09T13:36:35.482Z,31.45
2018-02-09T13:39:04.622Z,33.17
2018-02-09T13:41:34.044Z,32.10
2018-02-09T13:44:03.844Z,34.00
2018-02-09T13:46:33.499Z,31.27
2018-02-09T13:49:01.792Z,36.85
2018-02-09T13:51:30.116Z,34.40
2018-02-09T13:53:58.545Z,40.55
2018-02-09T13:56:26.916Z,32.60
2018-02-09T13:58:55.261Z,34.33
2018-02-09T14:01:24.357Z,30.00
2018-02-09T14:03:54.802Z,33.10
2018-02-09T14:06:24.924Z,32.50
2018-02-09T14:08:53.324Z,55.85
2018-02-09T14:11:21.639Z,37.10
2018-02-09T14:13:49.957Z,36.38
2018-02-09T14:16:19.062Z,36.08
2018-02-09T14:18:48.159Z,31.98
2018-02-09T14:21:17.247Z,36.58
2018-02-09T14:23:46.362Z,31.37
2018-02-09T14:26:14.768Z,37.38
2018-02-09T14:28:43.126Z,31.77
2018-02-09T14:31:12.222Z,31.77
2018-02-09T14:33:41.305Z,34.83
2018-02-09T14:36:09.703Z,33.90
2018-02-09T14:38:38.807Z,34.70
2018-02-09T14:41:07.918Z,32.65
2018-02-09T14:43:36.498Z,31.80
2018-02-09T14:46:05.631Z,35.47
2018-02-09T14:48:33.949Z,32.30
2018-02-09T14:51:02.301Z,33.00
2018-02-09T14:53:30.619Z,30.62
2018-02-09T14:55:58.961Z,30.67
2018-02-09T14:58:27.314Z,36.03
2018-02-09T15:00:55.663Z,35.75
2018-02-09T15:03:24.031Z,33.78
2018-02-09T15:05:53.759Z,36.85
2018-02-09T15:08:23.028Z,35.42
2018-02-09T15:10:51.374Z,35.88
2018-02-09T15:13:20.500Z,45.88
2018-02-09T15:15:48.860Z,41.58
2018-02-09T15:18:17.259Z,41.45
2018-02-09T15:20:45.654Z,38.92
2018-02-09T15:23:14.032Z,35.03
2018-02-09T15:25:42.442Z,32.85
2018-02-09T15:28:10.911Z,32.65
2018-02-09T15:30:39.348Z,33.80
2018-02-09T15:33:09.084Z,34.30
2018-02-09T15:35:39.317Z,32.60
2018-02-09T15:38:07.742Z,31.90
2018-02-09T15:40:36.167Z,34.10
2018-02-09T15:43:05.462Z,29.83
2018-02-09T15:45:35.310Z,31.50
2018-02-09T15:48:03.717Z,34.80
2018-02-09T15:50:32.069Z,33.47
2018-02-09T15:53:00.467Z,32.60
2018-02-09T15:55:28.910Z,32.67
2018-02-09T15:57:58.053Z,32.85
2018-02-09T16:00:26.433Z,32.00
2018-02-09T16:02:54.781Z,31.62
2018-02-09T16:05:23.137Z,33.92
2018-02-09T16:07:51.576Z,33.53
2018-02-09T16:10:20.743Z,31.40
2018-02-09T16:12:49.837Z,32.78
2018-02-09T16:15:18.956Z,33.47
2018-02-09T16:17:47.349Z,33.65
2018-02-09T16:20:16.461Z,31.42
2018-02-09T16:22:44.803Z,32.10
2018-02-09T16:25:14.230Z,34.50
2018-02-09T16:27:42.561Z,31.87
2018-02-09T16:30:10.897Z,32.25
2018-02-09T16:32:39.995Z,32.90
2018-02-09T16:35:09.070Z,34.33
2018-02-09T16:37:37.412Z,30.70
2018-02-09T16:40:06.345Z,32.78
2018-02-09T16:42:34.760Z,32.75
2018-02-09T16:45:03.893Z,33.35
2018-02-09T16:47:32.204Z,35.38
2018-02-09T16:50:00.625Z,34.45
2018-02-09T16:52:28.985Z,32.10
2018-02-09T16:54:57.345Z,32.25
2018-02-09T16:57:25.708Z,34.15
2018-02-09T16:59:54.033Z,31.17
2018-02-09T17:02:22.381Z,34.25
2018-02-09T17:04:50.744Z,34.70
2018-02-09T17:07:19.078Z,33.28
2018-02-09T17:09:47.405Z,34.13
2018-02-09T17:12:15.726Z,36.50
2018-02-09T17:14:44.981Z,33.58
2018-02-09T17:17:13.388Z,33.72
2018-02-09T17:19:41.716Z,35.47
2018-02-09T17:22:10.103Z,31.83
2018-02-09T17:24:39.201Z,32.38
2018-02-09T17:27:08.434Z,33.05
2018-02-09T17:29:37.538Z,31.10
2018-02-09T17:32:05.856Z,30.98
2018-02-09T17:34:34.213Z,34.40
2018-02-09T17:37:02.571Z,31.92
2018-02-09T17:39:31.717Z,32.55
2018-02-09T17:42:00.029Z,32.05
2018-02-09T17:44:28.405Z,29.50
2018-02-09T17:46:57.533Z,31.80
2018-02-09T17:49:26.633Z,32.47
2018-02-09T17:51:55.773Z,36.13
2018-02-09T17:54:24.306Z,35.47
2018-02-09T17:56:52.746Z,33.03
2018-02-09T17:59:21.117Z,35.83
2018-02-09T18:01:49.473Z,31.58
2018-02-09T18:04:18.591Z,35.47
2018-02-09T18:06:46.996Z,34.30
2018-02-09T18:09:16.092Z,31.02
2018-02-09T18:11:44.454Z,32.60
2018-02-09T18:14:12.822Z,32.80
2018-02-09T18:16:41.877Z,33.10
2018-02-09T18:19:11.045Z,34.97
2018-02-09T18:21:39.363Z,31.02
2018-02-09T18:24:08.592Z,36.53
2018-02-09T18:26:37.015Z,33.55
2018-02-09T18:29:05.344Z,33.15
2018-02-09T18:31:33.677Z,32.85
2018-02-09T18:34:02.069Z,31.70
2018-02-09T18:36:30.541Z,32.20
2018-02-09T18:38:58.934Z,32.13
2018-02-09T18:41:28.319Z,30.95
2018-02-09T18:43:57.436Z,34.63
2018-02-09T18:46:25.840Z,38.10
2018-02-09T18:48:54.267Z,34.85
2018-02-09T18:51:23.366Z,36.38
2018-02-09T18:53:51.970Z,36.28
2018-02-09T18:56:20.391Z,31.58
2018-02-09T18:58:48.757Z,33.88
2018-02-09T19:01:17.827Z,33.05
2018-02-09T19:03:46.938Z,32.92
2018-02-09T19:06:17.080Z,35.95
2018-02-09T19:08:45.456Z,32.33
2018-02-09T19:11:14.779Z,32.15
2018-02-09T19:13:43.117Z,35.30
2018-02-09T19:16:11.475Z,31.92
2018-02-09T19:18:39.809Z,30.98
2018-02-09T19:21:08.184Z,35.33
2018-02-09T19:23:37.256Z,35.03
2018-02-09T19:26:05.573Z,35.53
2018-02-09T19:28:34.661Z,35.97
2018-02-09T19:31:03.731Z,34.78
2018-02-09T19:33:32.080Z,31.67
2018-02-09T19:36:00.447Z,34.00
2018-02-09T19:38:28.831Z,35.85
2018-02-09T19:40:57.153Z,34.95
2018-02-09T19:43:25.502Z,34.55
2018-02-09T19:45:53.830Z,34.42
2018-02-09T19:48:22.202Z,34.70
2018-02-09T19:50:50.518Z,31.00
2018-02-09T19:53:18.904Z,34.75
2018-02-09T19:55:48.015Z,31.65
2018-02-09T19:58:16.485Z,35.35
2018-02-09T20:00:44.873Z,30.37
2018-02-09T20:03:13.426Z,31.08
2018-02-09T20:05:42.164Z,32.42
2018-02-09T20:08:11.345Z,34.40
2018-02-09T20:10:40.488Z,32.25
2018-02-09T20:13:08.919Z,31.92
2018-02-09T20:15:37.293Z,31.08
2018-02-09T20:18:05.764Z,32.20
2018-02-09T20:20:34.615Z,35.03
2018-02-09T20:23:03.898Z,32.35
2018-02-09T20:25:32.585Z,34.25
2018-02-09T20:28:00.943Z,34.85
2018-02-09T20:30:29.260Z,33.03
2018-02-09T20:32:58.382Z,33.20
2018-02-09T20:35:26.675Z,32.40
2018-02-09T20:37:54.983Z,33.25
2018-02-09T20:40:23.305Z,35.05
2018-02-09T20:42:52.405Z,30.88
2018-02-09T20:45:21.557Z,31.08
2018-02-09T20:47:49.896Z,34.85
2018-02-09T20:50:18.300Z,32.10
2018-02-09T20:52:46.641Z,33.30
2018-02-09T20:55:14.999Z,33.00
2018-02-09T20:57:43.312Z,30.58
2018-02-09T21:00:11.686Z,32.65
2018-02-09T21:02:40.017Z,31.62
2018-02-09T21:05:08.408Z,33.92
2018-02-09T21:07:37.604Z,34.42
2018-02-09T21:10:05.986Z,30.35
2018-02-09T21:12:34.365Z,31.05
2018-02-09T21:15:02.727Z,33.40
2018-02-09T21:17:31.049Z,29.50
2018-02-09T21:19:59.994Z,31.10
2018-02-09T21:22:28.551Z,29.58
2018-02-09T21:24:56.920Z,31.95
2018-02-09T21:27:25.244Z,33.97
2018-02-09T21:29:54.360Z,32.17
2018-02-09T21:32:23.459Z,30.85
2018-02-09T21:34:52.557Z,32.97
2018-02-09T21:37:21.911Z,33.72
2018-02-09T21:39:52.875Z,31.77
2018-02-09T21:42:21.237Z,30.67
2018-02-09T21:44:50.157Z,32.03
2018-02-09T21:47:18.548Z,32.92
2018-02-09T21:49:47.679Z,31.70
2018-02-09T21:52:16.000Z,30.85
2018-02-09T21:54:44.591Z,34.30
2018-02-09T21:57:18.969Z,33.22
2018-02-09T21:59:47.288Z,32.00
2018-02-09T22:02:15.622Z,32.92
2018-02-09T22:04:43.975Z,31.95
2018-02-09T22:07:12.284Z,29.73
2018-02-09T22:09:41.354Z,30.50
2018-02-09T22:12:11.274Z,32.30
2018-02-09T22:14:39.603Z,32.13
2018-02-09T22:17:07.924Z,31.55
2018-02-09T22:19:36.789Z,30.02
2018-02-09T22:22:05.136Z,31.45
2018-02-09T22:24:33.492Z,30.92
2018-02-09T22:27:01.911Z,30.95
2018-02-09T22:29:31.043Z,30.02
2018-02-09T22:31:59.376Z,30.70
2018-02-09T22:34:28.474Z,32.92
2018-02-09T22:36:57.582Z,29.30
2018-02-09T22:39:26.842Z,32.92
2018-02-09T22:41:55.222Z,29.85
2018-02-09T22:44:24.038Z,30.85
2018-02-09T22:46:53.160Z,31.85
2018-02-09T22:49:22.596Z,32.42
2018-02-09T22:51:51.151Z,30.98
2018-02-09T22:54:20.381Z,33.47
2018-02-09T22:56:50.696Z,34.35
2018-02-09T22:59:19.256Z,32.75
2018-02-09T23:01:47.858Z,33.58
2018-02-09T23:04:16.351Z,37.55
2018-02-09T23:06:45.453Z,40.12
2018-02-09T23:09:14.578Z,42.53
2018-02-09T23:11:42.967Z,41.20
2018-02-09T23:14:11.283Z,39.42
2018-02-09T23:16:39.622Z,40.40
2018-02-09T23:19:07.932Z,40.35
2018-02-09T23:21:36.294Z,37.55
2018-02-09T23:24:04.637Z,39.65
2018-02-09T23:26:33.747Z,43.55
2018-02-09T23:29:02.843Z,48.97
2018-02-09T23:31:31.230Z,49.25
2018-02-09T23:34:00.325Z,44.80
2018-02-09T23:36:28.669Z,42.58
2018-02-09T23:38:56.995Z,44.05
2018-02-09T23:41:25.345Z,46.65
2018-02-09T23:43:53.660Z,51.40
2018-02-09T23:46:22.795Z,51.80
2018-02-09T23:48:51.177Z,48.87
2018-02-09T23:51:19.549Z,52.50
2018-02-09T23:53:47.879Z,47.90
2018-02-09T23:56:16.373Z,44.45
2018-02-09T23:58:46.489Z,48.38
